Ely, Minnesota
Current Conditions -  °F | °C
As of 7:13 AM on Friday 31 Oct 2014 (Local Time) from KELO Reporting Station
Overcast Overcast  
Wind Chill: 17°   Ceiling: 2600
Heat Index: 25°   Visibility: 10mi
Dew Point: 18°   Wind: 7mph
Humidity: 74%   Direction: 350°N
Pressure: 30.49"   Gusts: NA
Location:  47.9°N, 91.87°W
Report Text: KELO 311213Z AUTO 35006KT 10SM OVC026 M04/M08 A3049 RMK AO2
Loading
Personal Weather Stations






























Interactive Weather Map
Tropical Storm Tracking
New forecast layout! Learn more

10-Day Weather Forecast

Advertisements
Track Severe Weather on mobile